createdAt,value
2023-05-05T00:00:15.553Z,16.50
2023-05-05T00:03:06.359Z,16.30
2023-05-05T00:05:57.512Z,16.10
2023-05-05T00:08:46.302Z,16.00
2023-05-05T00:11:34.971Z,15.80
2023-05-05T00:14:24.008Z,15.60
2023-05-05T00:17:12.719Z,15.80
2023-05-05T00:20:01.501Z,16.40
2023-05-05T00:22:51.503Z,16.70
2023-05-05T00:25:41.141Z,16.40
2023-05-05T00:28:29.763Z,16.20
2023-05-05T00:31:19.031Z,16.00
2023-05-05T00:34:10.410Z,16.20
2023-05-05T00:36:58.997Z,16.10
2023-05-05T00:39:48.996Z,16.10
2023-05-05T00:42:42.509Z,16.10
2023-05-05T00:45:31.734Z,16.20
2023-05-05T00:48:24.430Z,16.20
2023-05-05T00:51:13.097Z,16.10
2023-05-05T00:54:02.371Z,16.00
2023-05-05T00:56:53.429Z,15.90
2023-05-05T00:59:43.096Z,16.10
2023-05-05T01:02:32.221Z,16.20
2023-05-05T01:05:24.672Z,16.30
2023-05-05T01:08:27.698Z,16.40
2023-05-05T01:11:23.808Z,16.60
2023-05-05T01:14:18.146Z,16.60
2023-05-05T01:17:16.066Z,16.50
2023-05-05T01:20:17.500Z,16.10
2023-05-05T01:23:08.506Z,16.20
2023-05-05T01:26:23.168Z,16.40
2023-05-05T01:29:35.698Z,16.60
2023-05-05T01:32:29.447Z,16.90
2023-05-05T01:35:24.074Z,16.90
2023-05-05T01:38:17.762Z,16.90
2023-05-05T01:41:12.924Z,16.40
2023-05-05T01:44:03.893Z,16.20
2023-05-05T01:46:53.455Z,16.10
2023-05-05T01:49:47.284Z,16.30
2023-05-05T01:52:39.863Z,16.10
2023-05-05T01:55:30.762Z,16.00
2023-05-05T01:58:20.706Z,16.20
2023-05-05T02:01:10.712Z,16.20
2023-05-05T02:04:00.722Z,16.20
2023-05-05T02:06:53.490Z,16.10
2023-05-05T02:09:45.429Z,16.10
2023-05-05T02:12:35.227Z,16.20
2023-05-05T02:15:30.313Z,16.00
2023-05-05T02:18:21.223Z,16.00
2023-05-05T02:21:14.752Z,15.90
2023-05-05T02:24:07.981Z,16.00
2023-05-05T02:27:08.481Z,16.00
2023-05-05T02:29:59.803Z,16.00
2023-05-05T02:32:53.539Z,15.90
2023-05-05T02:35:44.008Z,15.90
2023-05-05T02:38:42.690Z,15.60
2023-05-05T02:41:37.313Z,15.50
2023-05-05T02:44:33.033Z,15.50
2023-05-05T02:47:22.498Z,15.40
2023-05-05T02:50:13.575Z,15.10
2023-05-05T02:53:08.851Z,15.00
2023-05-05T02:56:09.291Z,15.20
2023-05-05T02:59:16.995Z,15.20
2023-05-05T03:02:16.837Z,15.40
2023-05-05T03:05:11.310Z,15.40
2023-05-05T03:08:11.058Z,15.30
2023-05-05T03:11:08.008Z,15.60
2023-05-05T03:14:08.788Z,15.90
2023-05-05T03:16:58.336Z,16.00
2023-05-05T03:19:49.001Z,16.10
2023-05-05T03:22:38.178Z,16.30
2023-05-05T03:25:43.614Z,16.30
2023-05-05T03:28:36.326Z,16.30
2023-05-05T03:31:33.890Z,16.50
2023-05-05T03:34:24.021Z,16.70
2023-05-05T03:37:13.176Z,16.80
2023-05-05T03:40:03.951Z,16.80
2023-05-05T03:42:54.258Z,16.70
2023-05-05T03:45:43.145Z,16.90
2023-05-05T03:48:34.922Z,17.10
2023-05-05T03:51:26.925Z,17.20
2023-05-05T03:54:16.711Z,16.70
2023-05-05T03:57:05.470Z,16.40
2023-05-05T03:59:54.198Z,16.60
2023-05-05T04:02:43.997Z,16.90
2023-05-05T04:05:36.868Z,16.90
2023-05-05T04:08:26.392Z,17.00
2023-05-05T04:11:16.152Z,17.10
2023-05-05T04:14:04.969Z,16.80
2023-05-05T04:16:53.789Z,16.70
2023-05-05T04:19:43.266Z,16.80
2023-05-05T04:22:33.565Z,16.70
2023-05-05T04:25:23.283Z,16.20
2023-05-05T04:28:15.202Z,16.10
2023-05-05T04:31:05.165Z,16.30
2023-05-05T04:33:57.396Z,16.20
2023-05-05T04:36:46.803Z,16.40
2023-05-05T04:39:37.896Z,16.70
2023-05-05T04:42:26.773Z,17.10
2023-05-05T04:45:15.622Z,17.20
2023-05-05T04:48:05.643Z,17.00
2023-05-05T04:50:54.717Z,16.70
2023-05-05T04:53:43.505Z,16.60
2023-05-05T04:56:34.103Z,16.80
2023-05-05T04:59:22.793Z,16.80
2023-05-05T05:02:12.336Z,17.00
2023-05-05T05:05:01.027Z,17.10
2023-05-05T05:07:49.846Z,17.10
2023-05-05T05:10:38.651Z,17.30
2023-05-05T05:13:28.731Z,17.50
2023-05-05T05:16:17.663Z,17.90
2023-05-05T05:19:06.574Z,17.90
2023-05-05T05:21:55.433Z,17.70
2023-05-05T05:24:44.582Z,17.60
2023-05-05T05:27:35.640Z,17.60
2023-05-05T05:30:26.570Z,17.50
2023-05-05T05:33:15.889Z,17.40
2023-05-05T05:36:07.659Z,17.20
2023-05-05T05:38:56.434Z,17.30
2023-05-05T05:41:45.403Z,17.30
2023-05-05T05:44:34.788Z,17.50
2023-05-05T05:47:25.525Z,17.50
2023-05-05T05:50:14.543Z,17.60
2023-05-05T05:53:03.863Z,17.70
2023-05-05T05:55:53.083Z,17.60
2023-05-05T05:58:42.464Z,17.60
2023-05-05T06:01:32.543Z,17.60
2023-05-05T06:04:22.803Z,17.70
2023-05-05T06:07:11.664Z,17.60
2023-05-05T06:10:14.488Z,17.80
2023-05-05T06:13:11.686Z,17.90
2023-05-05T06:16:04.865Z,18.00
2023-05-05T06:18:53.707Z,18.10
2023-05-05T06:21:43.959Z,18.20
2023-05-05T06:24:35.045Z,18.30
2023-05-05T06:27:23.959Z,18.20
2023-05-05T06:30:14.739Z,18.30
2023-05-05T06:33:03.578Z,18.30
2023-05-05T06:35:53.189Z,18.50
2023-05-05T06:38:43.235Z,18.40
2023-05-05T06:41:32.391Z,18.40
2023-05-05T06:44:21.101Z,18.40
2023-05-05T06:47:09.938Z,18.60
2023-05-05T06:50:00.202Z,18.50
2023-05-05T06:52:49.159Z,18.50
2023-05-05T06:55:39.970Z,18.70
2023-05-05T06:58:30.169Z,18.70
2023-05-05T07:01:24.010Z,18.80
2023-05-05T07:04:13.161Z,19.00
2023-05-05T07:07:01.922Z,19.00
2023-05-05T07:09:52.193Z,19.20
2023-05-05T07:12:42.794Z,19.10
2023-05-05T07:15:31.678Z,19.10
2023-05-05T07:18:20.491Z,19.10
2023-05-05T07:21:09.760Z,19.10
2023-05-05T07:23:58.901Z,19.20
2023-05-05T07:26:48.313Z,19.30
2023-05-05T07:29:39.059Z,19.30
2023-05-05T07:32:27.848Z,19.30
2023-05-05T07:35:16.691Z,19.40
2023-05-05T07:38:08.155Z,19.50
2023-05-05T07:40:57.500Z,19.60
2023-05-05T07:43:46.205Z,19.70
2023-05-05T07:46:37.827Z,19.70
2023-05-05T07:49:26.815Z,19.70
2023-05-05T07:52:15.578Z,19.70
2023-05-05T07:55:05.524Z,19.60
2023-05-05T07:57:54.338Z,19.60
2023-05-05T08:00:43.834Z,19.70
2023-05-05T08:03:35.817Z,19.70
2023-05-05T08:06:25.689Z,19.80
2023-05-05T08:09:14.838Z,20.00
2023-05-05T08:12:03.963Z,20.30
2023-05-05T08:14:52.700Z,20.10
2023-05-05T08:17:49.412Z,20.10
2023-05-05T08:20:44.433Z,20.30
2023-05-05T08:23:33.235Z,20.40
2023-05-05T08:26:22.966Z,20.70
2023-05-05T08:29:11.705Z,20.70
2023-05-05T08:32:00.744Z,20.80
2023-05-05T08:34:49.551Z,20.90
2023-05-05T08:37:40.747Z,20.80
2023-05-05T08:40:34.173Z,20.80
2023-05-05T08:43:23.986Z,20.80
2023-05-05T08:46:13.316Z,20.80
2023-05-05T08:49:04.549Z,21.10
2023-05-05T08:51:55.723Z,21.50
2023-05-05T08:54:52.522Z,21.60
2023-05-05T08:57:50.125Z,21.70
2023-05-05T09:00:39.186Z,21.60
2023-05-05T09:03:31.286Z,21.70
2023-05-05T09:06:23.474Z,21.50
2023-05-05T09:09:12.770Z,21.30
2023-05-05T09:12:03.962Z,21.20
2023-05-05T09:14:53.998Z,21.10
2023-05-05T09:17:43.541Z,21.10
2023-05-05T09:20:35.922Z,20.90
2023-05-05T09:23:25.257Z,21.00
2023-05-05T09:26:14.461Z,20.80
2023-05-05T09:29:05.388Z,20.80
2023-05-05T09:32:06.013Z,20.80
2023-05-05T09:35:03.935Z,21.00
2023-05-05T09:37:52.779Z,21.10
2023-05-05T09:40:48.040Z,21.20
2023-05-05T09:43:52.124Z,21.40
2023-05-05T09:46:51.688Z,21.60
2023-05-05T09:49:41.046Z,21.50
2023-05-05T09:52:32.077Z,21.70
2023-05-05T09:55:20.953Z,21.50
2023-05-05T09:58:20.224Z,21.70
2023-05-05T10:01:23.617Z,21.70
2023-05-05T10:04:27.094Z,21.70
2023-05-05T10:07:25.436Z,21.80
2023-05-05T10:10:18.382Z,21.60
2023-05-05T10:13:07.284Z,21.50
2023-05-05T10:15:59.028Z,21.60
2023-05-05T10:18:49.816Z,21.60
2023-05-05T10:21:42.149Z,21.50
2023-05-05T10:24:39.100Z,21.50
2023-05-05T10:27:30.239Z,21.70
2023-05-05T10:30:24.444Z,21.90
2023-05-05T10:33:31.722Z,22.20
2023-05-05T10:36:22.191Z,22.40
2023-05-05T10:39:12.713Z,22.50
2023-05-05T10:42:03.902Z,22.40
2023-05-05T10:44:53.532Z,22.40
2023-05-05T10:47:44.530Z,22.50
2023-05-05T10:50:39.908Z,22.40
2023-05-05T10:53:33.242Z,22.40
2023-05-05T10:56:29.199Z,22.30
2023-05-05T10:59:47.928Z,22.30
2023-05-05T11:02:37.326Z,22.40
2023-05-05T11:05:26.406Z,22.30
2023-05-05T11:08:27.151Z,22.50
2023-05-05T11:11:17.795Z,22.50
2023-05-05T11:14:23.712Z,22.40
2023-05-05T11:17:45.601Z,22.30
2023-05-05T11:21:02.721Z,22.60
2023-05-05T11:23:53.054Z,22.60
2023-05-05T11:26:52.929Z,22.50
2023-05-05T11:30:08.067Z,22.50
2023-05-05T11:33:24.604Z,22.40
2023-05-05T11:36:15.426Z,22.50
2023-05-05T11:39:24.308Z,22.80
2023-05-05T11:42:25.944Z,22.90
2023-05-05T11:45:25.226Z,23.00
2023-05-05T11:48:27.121Z,23.00
2023-05-05T11:51:17.576Z,23.50
2023-05-05T11:54:25.583Z,23.70
2023-05-05T11:57:32.765Z,23.70
2023-05-05T12:00:34.054Z,23.60
2023-05-05T12:03:23.220Z,23.80
2023-05-05T12:06:12.143Z,24.00
2023-05-05T12:08:41.731Z,24.10
2023-05-05T12:11:12.310Z,24.00
2023-05-05T12:14:10.399Z,23.90
2023-05-05T12:16:42.436Z,23.50
2023-05-05T12:19:14.480Z,23.40
2023-05-05T12:21:46.888Z,23.40
2023-05-05T12:24:16.060Z,23.50
2023-05-05T12:26:44.918Z,23.60
2023-05-05T12:29:15.455Z,23.60
2023-05-05T12:31:45.561Z,23.60
2023-05-05T12:34:14.811Z,23.70
2023-05-05T12:36:47.162Z,23.80
2023-05-05T12:39:15.744Z,24.00
2023-05-05T12:41:44.718Z,23.90
2023-05-05T12:44:13.496Z,24.10
2023-05-05T12:46:52.458Z,24.00
2023-05-05T12:49:22.842Z,24.00
2023-05-05T12:51:55.601Z,23.70
2023-05-05T12:54:29.522Z,23.70
2023-05-05T12:57:12.656Z,23.70
2023-05-05T12:59:41.691Z,23.90
2023-05-05T13:02:11.810Z,23.80
2023-05-05T13:04:50.340Z,24.10
2023-05-05T13:07:20.600Z,24.30
2023-05-05T13:09:49.539Z,24.50
2023-05-05T13:12:19.676Z,24.90
2023-05-05T13:14:48.257Z,24.90
2023-05-05T13:17:18.819Z,24.90
2023-05-05T13:19:47.383Z,24.70
2023-05-05T13:23:16.672Z,24.80
2023-05-05T13:25:51.289Z,24.60
2023-05-05T13:28:19.824Z,24.70
2023-05-05T13:30:48.407Z,24.90
2023-05-05T13:33:18.320Z,24.90
2023-05-05T13:35:46.852Z,25.00
2023-05-05T13:38:15.548Z,25.30
2023-05-05T13:40:43.995Z,25.20
2023-05-05T13:43:12.790Z,25.10
2023-05-05T13:45:41.973Z,25.10
2023-05-05T13:48:10.640Z,25.10
2023-05-05T13:50:40.596Z,25.10
2023-05-05T13:53:09.022Z,25.10
2023-05-05T13:55:38.149Z,25.10
2023-05-05T13:58:06.751Z,25.30
2023-05-05T14:00:35.988Z,25.10
2023-05-05T14:03:04.708Z,25.20
2023-05-05T14:05:38.944Z,25.10
2023-05-05T14:08:08.971Z,25.00
2023-05-05T14:10:37.681Z,25.00
2023-05-05T14:13:06.553Z,25.00
2023-05-05T14:15:35.234Z,25.00
2023-05-05T14:18:04.126Z,25.00
2023-05-05T14:20:32.730Z,25.20
2023-05-05T14:23:01.168Z,25.20
2023-05-05T14:25:31.196Z,25.40
2023-05-05T14:27:59.556Z,25.40
2023-05-05T14:30:27.996Z,25.30
2023-05-05T14:32:58.763Z,25.30
2023-05-05T14:35:27.310Z,25.20
2023-05-05T14:37:55.675Z,25.30
2023-05-05T14:40:24.945Z,25.30
2023-05-05T14:42:54.778Z,25.50
2023-05-05T14:45:23.353Z,25.50
2023-05-05T14:47:52.696Z,25.50
2023-05-05T14:50:21.152Z,25.40
2023-05-05T14:52:49.605Z,25.50
2023-05-05T14:55:20.718Z,25.50
2023-05-05T14:57:49.212Z,25.60
2023-05-05T15:00:19.661Z,25.60
2023-05-05T15:02:49.132Z,25.50
2023-05-05T15:05:17.866Z,25.40
2023-05-05T15:07:46.326Z,25.40
2023-05-05T15:10:15.052Z,25.40
2023-05-05T15:12:45.066Z,25.30
2023-05-05T15:15:13.677Z,25.30
2023-05-05T15:17:43.579Z,25.20
2023-05-05T15:20:12.861Z,25.30
2023-05-05T15:22:44.076Z,25.50
2023-05-05T15:25:15.322Z,25.40
2023-05-05T15:27:47.056Z,25.50
2023-05-05T15:30:16.105Z,25.40
2023-05-05T15:32:48.468Z,25.30
2023-05-05T15:35:17.140Z,25.10
2023-05-05T15:37:46.529Z,24.90
2023-05-05T15:40:15.080Z,24.50
2023-05-05T15:42:43.497Z,24.00
2023-05-05T15:45:13.202Z,23.40
2023-05-05T15:47:41.710Z,22.80
2023-05-05T15:50:12.120Z,22.20
2023-05-05T15:52:41.735Z,20.70
2023-05-05T15:55:11.544Z,20.70
2023-05-05T15:57:40.421Z,20.50
2023-05-05T16:00:13.096Z,20.10
2023-05-05T16:02:42.516Z,20.20
2023-05-05T16:05:12.449Z,19.90
2023-05-05T16:07:41.033Z,20.10
2023-05-05T16:10:10.795Z,20.30
2023-05-05T16:12:40.235Z,20.20
2023-05-05T16:15:09.907Z,20.10
2023-05-05T16:17:39.531Z,19.70
2023-05-05T16:20:09.809Z,19.40
2023-05-05T16:22:39.801Z,19.30
2023-05-05T16:25:10.040Z,19.20
2023-05-05T16:27:38.756Z,19.30
2023-05-05T16:30:08.928Z,19.20
2023-05-05T16:32:37.961Z,19.30
2023-05-05T16:35:07.849Z,19.50
2023-05-05T16:37:36.594Z,19.80
2023-05-05T16:40:07.608Z,20.00
2023-05-05T16:42:35.902Z,20.30
2023-05-05T16:45:04.629Z,20.40
2023-05-05T16:47:39.198Z,20.40
2023-05-05T16:50:09.035Z,20.30
2023-05-05T16:52:37.734Z,20.50
2023-05-05T16:55:09.318Z,20.80
2023-05-05T16:57:37.940Z,20.90
2023-05-05T17:00:07.988Z,20.70
2023-05-05T17:02:36.925Z,20.40
2023-05-05T17:05:06.004Z,20.30
2023-05-05T17:07:34.534Z,20.10
2023-05-05T17:10:03.396Z,20.00
2023-05-05T17:12:33.202Z,19.70
2023-05-05T17:15:01.625Z,19.50
2023-05-05T17:17:29.959Z,19.40
2023-05-05T17:19:58.418Z,19.40
2023-05-05T17:22:26.933Z,19.40
2023-05-05T17:24:55.449Z,19.70
2023-05-05T17:27:23.924Z,20.20
2023-05-05T17:29:54.670Z,20.60
2023-05-05T17:32:24.498Z,20.60
2023-05-05T17:34:53.156Z,20.60
2023-05-05T17:37:21.566Z,20.10
2023-05-05T17:39:50.124Z,20.00
2023-05-05T17:42:22.860Z,19.90
2023-05-05T17:44:53.399Z,20.10
2023-05-05T17:47:24.273Z,20.20
2023-05-05T17:49:54.574Z,20.40
2023-05-05T17:52:23.347Z,20.20
2023-05-05T17:54:52.683Z,20.10
2023-05-05T17:57:22.928Z,20.30
2023-05-05T17:59:53.532Z,20.20
2023-05-05T18:02:24.077Z,20.30
2023-05-05T18:04:52.636Z,20.30
2023-05-05T18:07:21.007Z,20.00
2023-05-05T18:09:49.998Z,19.60
2023-05-05T18:12:18.873Z,19.50
2023-05-05T18:14:48.618Z,19.30
2023-05-05T18:17:16.999Z,19.40
2023-05-05T18:19:49.092Z,19.60
2023-05-05T18:22:17.835Z,19.50
2023-05-05T18:24:47.310Z,19.50
2023-05-05T18:27:15.751Z,19.50
2023-05-05T18:29:44.034Z,19.30
2023-05-05T18:32:16.255Z,19.20
2023-05-05T18:34:46.604Z,19.20
2023-05-05T18:37:15.202Z,19.30
2023-05-05T18:39:45.114Z,19.30
2023-05-05T18:42:13.921Z,19.20
2023-05-05T18:44:42.658Z,19.20
2023-05-05T18:47:11.176Z,19.10
2023-05-05T18:49:39.815Z,18.90
2023-05-05T18:52:10.416Z,18.90
2023-05-05T18:54:39.840Z,18.90
2023-05-05T18:57:08.215Z,19.10
2023-05-05T18:59:36.705Z,19.50
2023-05-05T19:02:05.007Z,19.80
2023-05-05T19:04:37.450Z,19.90
2023-05-05T19:07:07.684Z,19.90
2023-05-05T19:09:37.579Z,20.10
2023-05-05T19:12:06.427Z,20.20
2023-05-05T19:14:34.759Z,19.90
2023-05-05T19:17:03.683Z,19.70
2023-05-05T19:19:33.039Z,19.30
2023-05-05T19:22:02.992Z,19.00
2023-05-05T19:24:38.066Z,18.60
2023-05-05T19:27:15.430Z,18.40
2023-05-05T19:29:45.199Z,18.40
2023-05-05T19:32:17.321Z,18.40
2023-05-05T19:34:46.058Z,18.10
2023-05-05T19:37:14.402Z,17.90
2023-05-05T19:39:44.306Z,17.90
2023-05-05T19:42:15.640Z,18.00
2023-05-05T19:44:44.103Z,18.30
2023-05-05T19:47:12.965Z,18.40
2023-05-05T19:49:41.509Z,18.50
2023-05-05T19:52:09.778Z,18.60
2023-05-05T19:54:38.136Z,18.40
2023-05-05T19:57:07.294Z,18.40
2023-05-05T19:59:37.195Z,18.20
2023-05-05T20:02:05.844Z,18.10
2023-05-05T20:04:34.170Z,18.10
2023-05-05T20:07:03.743Z,18.20
2023-05-05T20:09:32.406Z,18.10
2023-05-05T20:12:01.992Z,18.10
2023-05-05T20:14:31.712Z,18.20
2023-05-05T20:17:01.506Z,18.30
2023-05-05T20:19:30.018Z,18.30
2023-05-05T20:21:58.981Z,18.40
2023-05-05T20:24:28.911Z,18.50
2023-05-05T20:27:02.187Z,18.50
2023-05-05T20:29:33.587Z,18.60
2023-05-05T20:32:03.866Z,18.80
2023-05-05T20:34:32.400Z,18.80
2023-05-05T20:37:00.835Z,18.60
2023-05-05T20:39:29.393Z,18.50
2023-05-05T20:41:57.794Z,18.40
2023-05-05T20:44:27.068Z,18.20
2023-05-05T20:46:55.570Z,18.00
2023-05-05T20:49:28.285Z,17.80
2023-05-05T20:51:57.044Z,17.80
2023-05-05T20:54:26.793Z,17.90
2023-05-05T20:56:58.176Z,18.00
2023-05-05T20:59:28.183Z,17.90
2023-05-05T21:01:58.348Z,17.60
2023-05-05T21:04:28.228Z,17.40
2023-05-05T21:06:57.477Z,17.40
2023-05-05T21:09:26.090Z,17.40
2023-05-05T21:11:54.625Z,17.50
2023-05-05T21:14:23.486Z,17.70
2023-05-05T21:16:52.045Z,17.70
2023-05-05T21:19:21.243Z,17.80
2023-05-05T21:21:51.278Z,17.90
2023-05-05T21:24:19.693Z,17.80
2023-05-05T21:26:48.236Z,17.70
2023-05-05T21:29:16.656Z,17.70
2023-05-05T21:31:44.966Z,17.80
2023-05-05T21:34:13.496Z,17.90
2023-05-05T21:36:41.881Z,17.90
2023-05-05T21:39:12.246Z,17.90
2023-05-05T21:41:40.673Z,18.00
2023-05-05T21:44:10.611Z,18.10
2023-05-05T21:46:39.055Z,18.00
2023-05-05T21:49:14.103Z,18.00
2023-05-05T21:51:43.209Z,18.10
2023-05-05T21:54:13.248Z,18.20
2023-05-05T21:56:41.809Z,18.30
2023-05-05T21:59:10.153Z,18.40
2023-05-05T22:01:38.899Z,18.50
2023-05-05T22:04:07.668Z,18.40
2023-05-05T22:06:36.492Z,18.30
2023-05-05T22:09:04.921Z,18.00
2023-05-05T22:11:34.764Z,18.00
2023-05-05T22:14:03.282Z,18.00
2023-05-05T22:16:31.735Z,17.90
2023-05-05T22:19:00.224Z,17.90
2023-05-05T22:21:29.772Z,17.90
2023-05-05T22:24:00.080Z,18.00
2023-05-05T22:26:29.499Z,17.90
2023-05-05T22:28:59.330Z,18.00
2023-05-05T22:31:27.850Z,18.10
2023-05-05T22:33:57.488Z,18.30
2023-05-05T22:36:27.660Z,18.30
2023-05-05T22:38:56.183Z,18.10
2023-05-05T22:41:24.997Z,18.10
2023-05-05T22:43:54.002Z,18.30
2023-05-05T22:46:24.043Z,18.20
2023-05-05T22:48:54.163Z,18.20
2023-05-05T22:51:22.538Z,18.20
2023-05-05T22:53:51.076Z,18.10
2023-05-05T22:56:19.714Z,18.20
2023-05-05T22:58:48.341Z,18.20
2023-05-05T23:01:16.893Z,18.10
2023-05-05T23:03:47.725Z,18.00
2023-05-05T23:06:16.296Z,18.00
2023-05-05T23:08:44.737Z,17.90
2023-05-05T23:11:13.131Z,17.70
2023-05-05T23:13:41.577Z,17.70
2023-05-05T23:16:10.023Z,17.80
2023-05-05T23:18:38.829Z,17.60
2023-05-05T23:21:08.592Z,17.40
2023-05-05T23:23:38.277Z,17.30
2023-05-05T23:26:06.584Z,17.20
2023-05-05T23:28:34.920Z,17.20
2023-05-05T23:31:06.168Z,17.30
2023-05-05T23:33:34.556Z,17.20
2023-05-05T23:36:03.003Z,17.40
2023-05-05T23:38:32.718Z,17.40
2023-05-05T23:41:01.102Z,17.60
2023-05-05T23:43:29.745Z,17.60
2023-05-05T23:45:58.294Z,17.60
2023-05-05T23:48:27.249Z,17.80
2023-05-05T23:50:55.946Z,17.60
2023-05-05T23:53:24.332Z,17.80
2023-05-05T23:55:54.258Z,17.70
2023-05-05T23:58:23.188Z,17.70
